sensor_id;sensor_type;location;lat;lon;timestamp;P1;durP1;ratioP1;P2;durP2;ratioP2
37455;SDS011;23316;50.718;7.328;2023-02-13T00:01:22;22.85;;;13.00;;
37455;SDS011;23316;50.718;7.328;2023-02-13T00:03:49;23.20;;;12.30;;
37455;SDS011;23316;50.718;7.328;2023-02-13T00:06:16;19.23;;;11.90;;
37455;SDS011;23316;50.718;7.328;2023-02-13T00:08:43;20.85;;;12.10;;
37455;SDS011;23316;50.718;7.328;2023-02-13T00:11:11;24.88;;;14.02;;
37455;SDS011;23316;50.718;7.328;2023-02-13T00:13:40;20.35;;;12.38;;
37455;SDS011;23316;50.718;7.328;2023-02-13T00:16:08;19.15;;;11.65;;
37455;SDS011;23316;50.718;7.328;2023-02-13T00:18:36;21.13;;;13.48;;
37455;SDS011;23316;50.718;7.328;2023-02-13T00:21:05;20.52;;;12.18;;
37455;SDS011;23316;50.718;7.328;2023-02-13T00:23:34;18.88;;;11.82;;
37455;SDS011;23316;50.718;7.328;2023-02-13T00:26:04;18.65;;;11.35;;
37455;SDS011;23316;50.718;7.328;2023-02-13T00:28:33;20.67;;;11.77;;
37455;SDS011;23316;50.718;7.328;2023-02-13T00:31:05;18.00;;;11.23;;
37455;SDS011;23316;50.718;7.328;2023-02-13T00:36:02;19.88;;;12.18;;
37455;SDS011;23316;50.718;7.328;2023-02-13T00:38:31;19.23;;;11.55;;
37455;SDS011;23316;50.718;7.328;2023-02-13T00:40:58;19.02;;;12.70;;
37455;SDS011;23316;50.718;7.328;2023-02-13T00:43:26;18.73;;;11.02;;
37455;SDS011;23316;50.718;7.328;2023-02-13T00:45:53;17.67;;;11.15;;
37455;SDS011;23316;50.718;7.328;2023-02-13T00:48:21;17.58;;;10.50;;
37455;SDS011;23316;50.718;7.328;2023-02-13T00:50:49;18.70;;;11.77;;
37455;SDS011;23316;50.718;7.328;2023-02-13T00:53:16;19.15;;;11.15;;
37455;SDS011;23316;50.718;7.328;2023-02-13T00:55:44;17.45;;;11.10;;
37455;SDS011;23316;50.718;7.328;2023-02-13T00:58:11;18.80;;;11.13;;
37455;SDS011;23316;50.718;7.328;2023-02-13T01:00:38;17.92;;;10.50;;
37455;SDS011;23316;50.718;7.328;2023-02-13T01:03:06;18.45;;;10.50;;
37455;SDS011;23316;50.718;7.328;2023-02-13T01:05:35;18.70;;;11.52;;
37455;SDS011;23316;50.718;7.328;2023-02-13T01:08:02;14.07;;;9.55;;
37455;SDS011;23316;50.718;7.328;2023-02-13T01:10:29;17.48;;;11.13;;
37455;SDS011;23316;50.718;7.328;2023-02-13T01:12:57;16.48;;;10.63;;
37455;SDS011;23316;50.718;7.328;2023-02-13T01:15:24;17.70;;;10.80;;
37455;SDS011;23316;50.718;7.328;2023-02-13T01:17:52;15.98;;;10.73;;
37455;SDS011;23316;50.718;7.328;2023-02-13T01:20:22;18.13;;;9.63;;
37455;SDS011;23316;50.718;7.328;2023-02-13T01:22:51;15.40;;;10.05;;
37455;SDS011;23316;50.718;7.328;2023-02-13T01:25:19;16.48;;;10.27;;
37455;SDS011;23316;50.718;7.328;2023-02-13T01:27:46;15.95;;;10.18;;
37455;SDS011;23316;50.718;7.328;2023-02-13T01:30:14;16.83;;;10.82;;
37455;SDS011;23316;50.718;7.328;2023-02-13T01:32:43;18.77;;;10.85;;
37455;SDS011;23316;50.718;7.328;2023-02-13T01:35:11;17.20;;;10.73;;
37455;SDS011;23316;50.718;7.328;2023-02-13T01:37:39;14.48;;;9.73;;
37455;SDS011;23316;50.718;7.328;2023-02-13T01:40:09;18.10;;;11.38;;
37455;SDS011;23316;50.718;7.328;2023-02-13T01:42:39;17.48;;;10.90;;
37455;SDS011;23316;50.718;7.328;2023-02-13T01:45:17;16.00;;;10.68;;
37455;SDS011;23316;50.718;7.328;2023-02-13T01:47:48;15.65;;;9.63;;
37455;SDS011;23316;50.718;7.328;2023-02-13T01:50:19;16.67;;;10.07;;
37455;SDS011;23316;50.718;7.328;2023-02-13T01:52:50;16.83;;;10.32;;
37455;SDS011;23316;50.718;7.328;2023-02-13T01:55:24;18.43;;;10.77;;
37455;SDS011;23316;50.718;7.328;2023-02-13T01:57:52;15.05;;;9.63;;
37455;SDS011;23316;50.718;7.328;2023-02-13T02:00:24;16.13;;;10.57;;
37455;SDS011;23316;50.718;7.328;2023-02-13T02:02:56;16.25;;;10.27;;
37455;SDS011;23316;50.718;7.328;2023-02-13T02:05:27;14.27;;;9.80;;
37455;SDS011;23316;50.718;7.328;2023-02-13T02:07:56;15.73;;;10.10;;
37455;SDS011;23316;50.718;7.328;2023-02-13T02:10:27;17.45;;;10.63;;
37455;SDS011;23316;50.718;7.328;2023-02-13T02:12:57;16.33;;;9.95;;
37455;SDS011;23316;50.718;7.328;2023-02-13T02:15:28;16.92;;;9.93;;
37455;SDS011;23316;50.718;7.328;2023-02-13T02:17:55;18.42;;;11.32;;
37455;SDS011;23316;50.718;7.328;2023-02-13T02:20:25;15.63;;;10.60;;
37455;SDS011;23316;50.718;7.328;2023-02-13T02:23:23;17.85;;;10.55;;
37455;SDS011;23316;50.718;7.328;2023-02-13T02:26:14;15.02;;;9.48;;
37455;SDS011;23316;50.718;7.328;2023-02-13T02:28:57;16.58;;;10.07;;
37455;SDS011;23316;50.718;7.328;2023-02-13T02:31:40;17.65;;;9.85;;
37455;SDS011;23316;50.718;7.328;2023-02-13T02:34:30;17.67;;;10.07;;
37455;SDS011;23316;50.718;7.328;2023-02-13T02:37:09;17.48;;;11.10;;
37455;SDS011;23316;50.718;7.328;2023-02-13T02:39:49;16.65;;;10.13;;
37455;SDS011;23316;50.718;7.328;2023-02-13T02:42:27;15.45;;;10.18;;
37455;SDS011;23316;50.718;7.328;2023-02-13T02:45:01;14.95;;;9.93;;
37455;SDS011;23316;50.718;7.328;2023-02-13T02:47:37;14.10;;;9.50;;
37455;SDS011;23316;50.718;7.328;2023-02-13T02:50:30;14.98;;;9.63;;
37455;SDS011;23316;50.718;7.328;2023-02-13T02:53:06;16.23;;;9.50;;
37455;SDS011;23316;50.718;7.328;2023-02-13T02:55:41;16.40;;;10.00;;
37455;SDS011;23316;50.718;7.328;2023-02-13T02:58:15;14.80;;;9.38;;
37455;SDS011;23316;50.718;7.328;2023-02-13T03:01:05;17.65;;;11.15;;
37455;SDS011;23316;50.718;7.328;2023-02-13T03:03:55;16.98;;;10.73;;
37455;SDS011;23316;50.718;7.328;2023-02-13T03:06:43;15.60;;;10.60;;
37455;SDS011;23316;50.718;7.328;2023-02-13T03:09:14;15.70;;;10.63;;
37455;SDS011;23316;50.718;7.328;2023-02-13T03:12:02;14.10;;;9.18;;
37455;SDS011;23316;50.718;7.328;2023-02-13T03:14:47;16.08;;;10.10;;
37455;SDS011;23316;50.718;7.328;2023-02-13T03:17:15;15.10;;;10.23;;
37455;SDS011;23316;50.718;7.328;2023-02-13T03:20:06;15.70;;;10.07;;
37455;SDS011;23316;50.718;7.328;2023-02-13T03:23:01;17.05;;;10.88;;
37455;SDS011;23316;50.718;7.328;2023-02-13T03:25:42;16.73;;;11.32;;
37455;SDS011;23316;50.718;7.328;2023-02-13T03:28:20;15.38;;;10.07;;
37455;SDS011;23316;50.718;7.328;2023-02-13T03:31:12;14.35;;;9.82;;
37455;SDS011;23316;50.718;7.328;2023-02-13T03:33:53;16.90;;;10.20;;
37455;SDS011;23316;50.718;7.328;2023-02-13T03:36:28;13.18;;;8.85;;
37455;SDS011;23316;50.718;7.328;2023-02-13T03:39:21;14.80;;;9.93;;
37455;SDS011;23316;50.718;7.328;2023-02-13T03:41:54;13.27;;;9.55;;
37455;SDS011;23316;50.718;7.328;2023-02-13T03:44:25;16.95;;;10.38;;
37455;SDS011;23316;50.718;7.328;2023-02-13T03:46:58;14.23;;;9.82;;
37455;SDS011;23316;50.718;7.328;2023-02-13T03:49:29;14.52;;;9.93;;
37455;SDS011;23316;50.718;7.328;2023-02-13T03:52:20;14.93;;;9.82;;
37455;SDS011;23316;50.718;7.328;2023-02-13T03:57:39;18.38;;;11.18;;
37455;SDS011;23316;50.718;7.328;2023-02-13T04:00:27;14.80;;;9.85;;
37455;SDS011;23316;50.718;7.328;2023-02-13T04:05:34;18.77;;;10.80;;
37455;SDS011;23316;50.718;7.328;2023-02-13T04:08:08;16.42;;;10.63;;
37455;SDS011;23316;50.718;7.328;2023-02-13T04:10:36;18.63;;;11.35;;
37455;SDS011;23316;50.718;7.328;2023-02-13T04:13:11;17.55;;;11.35;;
37455;SDS011;23316;50.718;7.328;2023-02-13T04:15:45;16.23;;;10.23;;
37455;SDS011;23316;50.718;7.328;2023-02-13T04:18:18;16.40;;;10.77;;
37455;SDS011;23316;50.718;7.328;2023-02-13T04:20:48;17.23;;;11.32;;
37455;SDS011;23316;50.718;7.328;2023-02-13T04:23:17;20.98;;;10.80;;
37455;SDS011;23316;50.718;7.328;2023-02-13T04:25:46;16.15;;;10.25;;
37455;SDS011;23316;50.718;7.328;2023-02-13T04:28:16;18.92;;;10.75;;
37455;SDS011;23316;50.718;7.328;2023-02-13T04:30:43;17.98;;;11.27;;
37455;SDS011;23316;50.718;7.328;2023-02-13T04:33:10;17.20;;;11.20;;
37455;SDS011;23316;50.718;7.328;2023-02-13T04:35:38;20.65;;;11.85;;
37455;SDS011;23316;50.718;7.328;2023-02-13T04:38:05;16.83;;;11.00;;
37455;SDS011;23316;50.718;7.328;2023-02-13T04:40:33;18.63;;;11.98;;
37455;SDS011;23316;50.718;7.328;2023-02-13T04:43:01;18.40;;;12.00;;
37455;SDS011;23316;50.718;7.328;2023-02-13T04:45:28;15.93;;;10.60;;
37455;SDS011;23316;50.718;7.328;2023-02-13T04:47:57;15.95;;;10.35;;
37455;SDS011;23316;50.718;7.328;2023-02-13T04:50:24;16.90;;;10.35;;
37455;SDS011;23316;50.718;7.328;2023-02-13T04:52:52;15.73;;;10.10;;
37455;SDS011;23316;50.718;7.328;2023-02-13T04:55:21;17.95;;;10.95;;
37455;SDS011;23316;50.718;7.328;2023-02-13T04:57:51;17.15;;;10.60;;
37455;SDS011;23316;50.718;7.328;2023-02-13T05:00:20;15.85;;;10.50;;
37455;SDS011;23316;50.718;7.328;2023-02-13T05:02:48;14.15;;;9.93;;
37455;SDS011;23316;50.718;7.328;2023-02-13T05:05:16;61.28;;;29.45;;
37455;SDS011;23316;50.718;7.328;2023-02-13T05:07:43;38.33;;;21.00;;
37455;SDS011;23316;50.718;7.328;2023-02-13T05:10:11;21.45;;;12.63;;
37455;SDS011;23316;50.718;7.328;2023-02-13T05:12:39;16.98;;;10.82;;
37455;SDS011;23316;50.718;7.328;2023-02-13T05:15:08;17.13;;;10.43;;
37455;SDS011;23316;50.718;7.328;2023-02-13T05:17:35;17.35;;;10.95;;
37455;SDS011;23316;50.718;7.328;2023-02-13T05:20:03;15.75;;;9.85;;
37455;SDS011;23316;50.718;7.328;2023-02-13T05:22:30;14.73;;;8.98;;
37455;SDS011;23316;50.718;7.328;2023-02-13T05:25:15;18.77;;;10.68;;
37455;SDS011;23316;50.718;7.328;2023-02-13T05:27:42;17.08;;;10.20;;
37455;SDS011;23316;50.718;7.328;2023-02-13T05:30:12;13.90;;;8.98;;
37455;SDS011;23316;50.718;7.328;2023-02-13T05:32:39;48.42;;;24.05;;
37455;SDS011;23316;50.718;7.328;2023-02-13T05:35:07;38.38;;;21.40;;
37455;SDS011;23316;50.718;7.328;2023-02-13T05:37:35;20.52;;;12.80;;
37455;SDS011;23316;50.718;7.328;2023-02-13T05:40:02;17.23;;;10.85;;
37455;SDS011;23316;50.718;7.328;2023-02-13T05:42:29;15.35;;;10.35;;
37455;SDS011;23316;50.718;7.328;2023-02-13T05:44:57;15.45;;;10.05;;
37455;SDS011;23316;50.718;7.328;2023-02-13T05:47:25;14.57;;;10.10;;
37455;SDS011;23316;50.718;7.328;2023-02-13T05:49:52;16.27;;;9.80;;
37455;SDS011;23316;50.718;7.328;2023-02-13T05:52:20;17.15;;;10.85;;
37455;SDS011;23316;50.718;7.328;2023-02-13T05:54:47;18.67;;;11.55;;
37455;SDS011;23316;50.718;7.328;2023-02-13T05:57:14;15.90;;;10.32;;
37455;SDS011;23316;50.718;7.328;2023-02-13T05:59:41;17.75;;;10.82;;
37455;SDS011;23316;50.718;7.328;2023-02-13T06:02:09;63.17;;;29.35;;
37455;SDS011;23316;50.718;7.328;2023-02-13T06:04:37;27.65;;;15.23;;
37455;SDS011;23316;50.718;7.328;2023-02-13T06:07:05;19.00;;;10.80;;
37455;SDS011;23316;50.718;7.328;2023-02-13T06:09:33;17.45;;;11.57;;
37455;SDS011;23316;50.718;7.328;2023-02-13T06:12:00;17.17;;;10.80;;
37455;SDS011;23316;50.718;7.328;2023-02-13T06:14:27;19.15;;;11.23;;
37455;SDS011;23316;50.718;7.328;2023-02-13T06:16:54;19.40;;;12.27;;
37455;SDS011;23316;50.718;7.328;2023-02-13T06:19:22;19.25;;;11.65;;
37455;SDS011;23316;50.718;7.328;2023-02-13T06:21:50;21.38;;;11.88;;
37455;SDS011;23316;50.718;7.328;2023-02-13T06:24:18;19.73;;;11.82;;
37455;SDS011;23316;50.718;7.328;2023-02-13T06:26:45;17.65;;;11.27;;
37455;SDS011;23316;50.718;7.328;2023-02-13T06:29:13;18.17;;;11.32;;
37455;SDS011;23316;50.718;7.328;2023-02-13T06:31:40;17.50;;;11.10;;
37455;SDS011;23316;50.718;7.328;2023-02-13T06:34:07;18.88;;;10.75;;
37455;SDS011;23316;50.718;7.328;2023-02-13T06:36:34;19.70;;;12.20;;
37455;SDS011;23316;50.718;7.328;2023-02-13T06:39:04;16.55;;;10.60;;
37455;SDS011;23316;50.718;7.328;2023-02-13T06:41:31;17.25;;;11.13;;
37455;SDS011;23316;50.718;7.328;2023-02-13T06:43:58;17.08;;;10.82;;
37455;SDS011;23316;50.718;7.328;2023-02-13T06:46:26;25.80;;;15.02;;
37455;SDS011;23316;50.718;7.328;2023-02-13T06:48:53;34.70;;;18.90;;
37455;SDS011;23316;50.718;7.328;2023-02-13T06:51:20;23.17;;;13.60;;
37455;SDS011;23316;50.718;7.328;2023-02-13T06:53:47;21.83;;;12.80;;
37455;SDS011;23316;50.718;7.328;2023-02-13T06:56:16;17.65;;;10.80;;
37455;SDS011;23316;50.718;7.328;2023-02-13T06:58:43;19.42;;;11.82;;
37455;SDS011;23316;50.718;7.328;2023-02-13T07:01:14;17.98;;;11.10;;
37455;SDS011;23316;50.718;7.328;2023-02-13T07:03:46;19.30;;;12.13;;
37455;SDS011;23316;50.718;7.328;2023-02-13T07:06:17;21.92;;;13.38;;
37455;SDS011;23316;50.718;7.328;2023-02-13T07:08:44;22.00;;;12.43;;
37455;SDS011;23316;50.718;7.328;2023-02-13T07:11:17;17.13;;;11.30;;
37455;SDS011;23316;50.718;7.328;2023-02-13T07:13:45;19.48;;;12.07;;
37455;SDS011;23316;50.718;7.328;2023-02-13T07:16:13;17.95;;;11.55;;
37455;SDS011;23316;50.718;7.328;2023-02-13T07:18:40;17.83;;;11.85;;
37455;SDS011;23316;50.718;7.328;2023-02-13T07:21:07;18.65;;;11.65;;
37455;SDS011;23316;50.718;7.328;2023-02-13T07:23:34;19.63;;;12.00;;
37455;SDS011;23316;50.718;7.328;2023-02-13T07:26:02;23.70;;;13.52;;
37455;SDS011;23316;50.718;7.328;2023-02-13T07:28:37;19.83;;;11.98;;
37455;SDS011;23316;50.718;7.328;2023-02-13T07:31:04;18.55;;;12.00;;
37455;SDS011;23316;50.718;7.328;2023-02-13T07:33:31;23.25;;;13.38;;
37455;SDS011;23316;50.718;7.328;2023-02-13T07:35:59;21.83;;;13.80;;
37455;SDS011;23316;50.718;7.328;2023-02-13T07:38:28;21.63;;;12.85;;
37455;SDS011;23316;50.718;7.328;2023-02-13T07:40:57;24.20;;;14.40;;
37455;SDS011;23316;50.718;7.328;2023-02-13T07:43:24;22.00;;;13.05;;
37455;SDS011;23316;50.718;7.328;2023-02-13T07:45:53;17.40;;;11.73;;
37455;SDS011;23316;50.718;7.328;2023-02-13T07:48:23;21.27;;;12.23;;
37455;SDS011;23316;50.718;7.328;2023-02-13T07:50:51;21.40;;;13.50;;
37455;SDS011;23316;50.718;7.328;2023-02-13T07:53:19;24.77;;;14.35;;
37455;SDS011;23316;50.718;7.328;2023-02-13T07:55:47;19.02;;;12.32;;
37455;SDS011;23316;50.718;7.328;2023-02-13T07:58:14;21.15;;;12.68;;
37455;SDS011;23316;50.718;7.328;2023-02-13T08:00:41;23.30;;;14.05;;
37455;SDS011;23316;50.718;7.328;2023-02-13T08:03:10;22.52;;;13.35;;
37455;SDS011;23316;50.718;7.328;2023-02-13T08:05:37;18.85;;;12.50;;
37455;SDS011;23316;50.718;7.328;2023-02-13T08:08:05;20.38;;;13.15;;
37455;SDS011;23316;50.718;7.328;2023-02-13T08:10:32;22.60;;;12.65;;
37455;SDS011;23316;50.718;7.328;2023-02-13T08:13:17;21.95;;;12.95;;
37455;SDS011;23316;50.718;7.328;2023-02-13T08:15:45;22.23;;;12.40;;
37455;SDS011;23316;50.718;7.328;2023-02-13T08:18:13;22.45;;;12.85;;
37455;SDS011;23316;50.718;7.328;2023-02-13T08:20:41;23.80;;;13.63;;
37455;SDS011;23316;50.718;7.328;2023-02-13T08:23:08;19.40;;;12.30;;
37455;SDS011;23316;50.718;7.328;2023-02-13T08:25:36;23.02;;;13.10;;
37455;SDS011;23316;50.718;7.328;2023-02-13T08:28:04;21.75;;;13.25;;
37455;SDS011;23316;50.718;7.328;2023-02-13T08:30:31;45.35;;;20.42;;
37455;SDS011;23316;50.718;7.328;2023-02-13T08:32:58;55.35;;;24.80;;
37455;SDS011;23316;50.718;7.328;2023-02-13T08:35:27;25.25;;;14.57;;
37455;SDS011;23316;50.718;7.328;2023-02-13T08:37:56;18.83;;;12.48;;
37455;SDS011;23316;50.718;7.328;2023-02-13T08:40:27;18.85;;;11.60;;
37455;SDS011;23316;50.718;7.328;2023-02-13T08:42:57;21.40;;;12.00;;
37455;SDS011;23316;50.718;7.328;2023-02-13T08:45:26;22.88;;;13.35;;
37455;SDS011;23316;50.718;7.328;2023-02-13T08:47:54;19.95;;;12.25;;
37455;SDS011;23316;50.718;7.328;2023-02-13T08:50:22;20.77;;;12.88;;
37455;SDS011;23316;50.718;7.328;2023-02-13T08:52:51;20.08;;;12.18;;
37455;SDS011;23316;50.718;7.328;2023-02-13T08:55:18;20.77;;;11.77;;
37455;SDS011;23316;50.718;7.328;2023-02-13T08:57:46;20.52;;;12.63;;
37455;SDS011;23316;50.718;7.328;2023-02-13T09:00:13;19.90;;;12.30;;
37455;SDS011;23316;50.718;7.328;2023-02-13T09:02:41;21.15;;;11.98;;
37455;SDS011;23316;50.718;7.328;2023-02-13T09:05:08;20.17;;;12.10;;
37455;SDS011;23316;50.718;7.328;2023-02-13T09:07:35;18.77;;;11.20;;
37455;SDS011;23316;50.718;7.328;2023-02-13T09:10:04;20.27;;;12.50;;
37455;SDS011;23316;50.718;7.328;2023-02-13T09:12:33;22.20;;;12.52;;
37455;SDS011;23316;50.718;7.328;2023-02-13T09:15:00;21.02;;;12.70;;
37455;SDS011;23316;50.718;7.328;2023-02-13T09:17:27;18.42;;;11.57;;
37455;SDS011;23316;50.718;7.328;2023-02-13T09:19:54;21.27;;;11.95;;
37455;SDS011;23316;50.718;7.328;2023-02-13T09:22:21;19.83;;;11.65;;
37455;SDS011;23316;50.718;7.328;2023-02-13T09:24:49;22.67;;;11.95;;
37455;SDS011;23316;50.718;7.328;2023-02-13T09:27:17;24.45;;;12.27;;
37455;SDS011;23316;50.718;7.328;2023-02-13T09:29:45;19.05;;;11.25;;
37455;SDS011;23316;50.718;7.328;2023-02-13T09:32:12;18.90;;;11.40;;
37455;SDS011;23316;50.718;7.328;2023-02-13T09:34:40;21.83;;;12.27;;
37455;SDS011;23316;50.718;7.328;2023-02-13T09:37:07;19.23;;;11.40;;
37455;SDS011;23316;50.718;7.328;2023-02-13T09:39:34;17.98;;;10.45;;
37455;SDS011;23316;50.718;7.328;2023-02-13T09:42:02;20.05;;;11.25;;
37455;SDS011;23316;50.718;7.328;2023-02-13T09:44:49;16.38;;;9.80;;
37455;SDS011;23316;50.718;7.328;2023-02-13T09:47:20;15.82;;;9.60;;
37455;SDS011;23316;50.718;7.328;2023-02-13T09:49:55;17.75;;;10.43;;
37455;SDS011;23316;50.718;7.328;2023-02-13T09:52:25;15.07;;;9.10;;
37455;SDS011;23316;50.718;7.328;2023-02-13T09:54:57;16.58;;;9.65;;
37455;SDS011;23316;50.718;7.328;2023-02-13T09:57:26;14.95;;;9.45;;
37455;SDS011;23316;50.718;7.328;2023-02-13T10:00:00;18.42;;;10.15;;
37455;SDS011;23316;50.718;7.328;2023-02-13T10:02:42;16.08;;;9.65;;
37455;SDS011;23316;50.718;7.328;2023-02-13T10:05:27;17.95;;;9.52;;
37455;SDS011;23316;50.718;7.328;2023-02-13T10:08:08;14.48;;;9.40;;
37455;SDS011;23316;50.718;7.328;2023-02-13T10:10:49;16.48;;;9.30;;
37455;SDS011;23316;50.718;7.328;2023-02-13T10:13:23;15.80;;;9.05;;
37455;SDS011;23316;50.718;7.328;2023-02-13T10:16:02;15.00;;;8.90;;
37455;SDS011;23316;50.718;7.328;2023-02-13T10:18:37;16.50;;;9.45;;
37455;SDS011;23316;50.718;7.328;2023-02-13T10:21:10;15.60;;;9.32;;
37455;SDS011;23316;50.718;7.328;2023-02-13T10:23:40;16.80;;;9.38;;
37455;SDS011;23316;50.718;7.328;2023-02-13T10:26:14;16.92;;;9.80;;
37455;SDS011;23316;50.718;7.328;2023-02-13T10:28:47;13.88;;;7.82;;
37455;SDS011;23316;50.718;7.328;2023-02-13T10:31:35;16.25;;;8.70;;
37455;SDS011;23316;50.718;7.328;2023-02-13T10:34:04;16.38;;;9.00;;
37455;SDS011;23316;50.718;7.328;2023-02-13T10:36:40;12.95;;;7.60;;
37455;SDS011;23316;50.718;7.328;2023-02-13T10:39:15;13.02;;;7.65;;
37455;SDS011;23316;50.718;7.328;2023-02-13T10:41:49;13.15;;;8.05;;
37455;SDS011;23316;50.718;7.328;2023-02-13T10:44:28;13.57;;;7.60;;
37455;SDS011;23316;50.718;7.328;2023-02-13T10:47:10;13.50;;;7.97;;
37455;SDS011;23316;50.718;7.328;2023-02-13T10:49:47;12.80;;;7.50;;
37455;SDS011;23316;50.718;7.328;2023-02-13T10:52:25;10.73;;;7.13;;
37455;SDS011;23316;50.718;7.328;2023-02-13T10:55:13;12.27;;;7.50;;
37455;SDS011;23316;50.718;7.328;2023-02-13T10:57:56;13.02;;;7.18;;
37455;SDS011;23316;50.718;7.328;2023-02-13T11:00:33;12.63;;;7.60;;
37455;SDS011;23316;50.718;7.328;2023-02-13T11:03:09;12.63;;;6.73;;
37455;SDS011;23316;50.718;7.328;2023-02-13T11:05:43;11.23;;;7.38;;
37455;SDS011;23316;50.718;7.328;2023-02-13T11:08:15;11.55;;;7.13;;
37455;SDS011;23316;50.718;7.328;2023-02-13T11:10:45;12.43;;;7.15;;
37455;SDS011;23316;50.718;7.328;2023-02-13T11:13:17;13.60;;;7.10;;
37455;SDS011;23316;50.718;7.328;2023-02-13T11:15:59;11.15;;;6.15;;
37455;SDS011;23316;50.718;7.328;2023-02-13T11:18:30;11.68;;;7.03;;
37455;SDS011;23316;50.718;7.328;2023-02-13T11:21:04;13.15;;;7.07;;
37455;SDS011;23316;50.718;7.328;2023-02-13T11:23:36;12.95;;;7.13;;
37455;SDS011;23316;50.718;7.328;2023-02-13T11:26:06;11.38;;;6.57;;
37455;SDS011;23316;50.718;7.328;2023-02-13T11:28:37;11.85;;;6.95;;
37455;SDS011;23316;50.718;7.328;2023-02-13T11:31:12;9.77;;;6.05;;
37455;SDS011;23316;50.718;7.328;2023-02-13T11:33:47;10.30;;;6.40;;
37455;SDS011;23316;50.718;7.328;2023-02-13T11:36:15;9.18;;;6.00;;
37455;SDS011;23316;50.718;7.328;2023-02-13T11:38:43;11.25;;;6.72;;
37455;SDS011;23316;50.718;7.328;2023-02-13T11:41:11;9.77;;;5.90;;
37455;SDS011;23316;50.718;7.328;2023-02-13T11:43:43;10.48;;;6.03;;
37455;SDS011;23316;50.718;7.328;2023-02-13T11:46:15;10.45;;;6.03;;
37455;SDS011;23316;50.718;7.328;2023-02-13T11:48:56;9.98;;;6.55;;
37455;SDS011;23316;50.718;7.328;2023-02-13T11:51:38;9.35;;;5.55;;
37455;SDS011;23316;50.718;7.328;2023-02-13T11:54:21;11.30;;;5.95;;
37455;SDS011;23316;50.718;7.328;2023-02-13T11:56:53;13.13;;;6.38;;
37455;SDS011;23316;50.718;7.328;2023-02-13T11:59:23;9.15;;;6.22;;
37455;SDS011;23316;50.718;7.328;2023-02-13T12:02:02;9.27;;;6.05;;
37455;SDS011;23316;50.718;7.328;2023-02-13T12:04:39;10.48;;;5.38;;
37455;SDS011;23316;50.718;7.328;2023-02-13T12:07:11;7.43;;;4.97;;
37455;SDS011;23316;50.718;7.328;2023-02-13T12:09:41;9.38;;;5.07;;
37455;SDS011;23316;50.718;7.328;2023-02-13T12:12:14;12.90;;;5.60;;
37455;SDS011;23316;50.718;7.328;2023-02-13T12:14:45;6.40;;;4.60;;
37455;SDS011;23316;50.718;7.328;2023-02-13T12:17:14;11.98;;;5.25;;
37455;SDS011;23316;50.718;7.328;2023-02-13T12:19:45;10.65;;;5.22;;
37455;SDS011;23316;50.718;7.328;2023-02-13T12:22:17;6.85;;;4.72;;
37455;SDS011;23316;50.718;7.328;2023-02-13T12:24:59;11.38;;;5.07;;
37455;SDS011;23316;50.718;7.328;2023-02-13T12:27:46;8.50;;;5.13;;
37455;SDS011;23316;50.718;7.328;2023-02-13T12:33:35;6.70;;;4.63;;
37455;SDS011;23316;50.718;7.328;2023-02-13T12:36:20;8.47;;;4.93;;
37455;SDS011;23316;50.718;7.328;2023-02-13T12:38:54;12.70;;;5.25;;
37455;SDS011;23316;50.718;7.328;2023-02-13T12:41:33;7.18;;;4.60;;
37455;SDS011;23316;50.718;7.328;2023-02-13T12:44:08;8.60;;;4.50;;
37455;SDS011;23316;50.718;7.328;2023-02-13T12:46:51;10.32;;;4.68;;
37455;SDS011;23316;50.718;7.328;2023-02-13T12:49:32;8.20;;;4.10;;
37455;SDS011;23316;50.718;7.328;2023-02-13T12:52:21;6.53;;;4.22;;
37455;SDS011;23316;50.718;7.328;2023-02-13T12:55:03;6.85;;;3.83;;
37455;SDS011;23316;50.718;7.328;2023-02-13T12:57:54;7.80;;;4.40;;
37455;SDS011;23316;50.718;7.328;2023-02-13T13:00:35;7.28;;;4.13;;
37455;SDS011;23316;50.718;7.328;2023-02-13T13:03:29;7.60;;;4.55;;
37455;SDS011;23316;50.718;7.328;2023-02-13T13:06:07;8.63;;;4.07;;
37455;SDS011;23316;50.718;7.328;2023-02-13T13:12:05;7.28;;;4.22;;
37455;SDS011;23316;50.718;7.328;2023-02-13T13:14:49;7.10;;;3.95;;
37455;SDS011;23316;50.718;7.328;2023-02-13T13:17:24;7.53;;;4.00;;
37455;SDS011;23316;50.718;7.328;2023-02-13T13:20:13;6.28;;;3.70;;
37455;SDS011;23316;50.718;7.328;2023-02-13T13:23:07;5.78;;;3.60;;
37455;SDS011;23316;50.718;7.328;2023-02-13T13:25:41;6.57;;;4.07;;
37455;SDS011;23316;50.718;7.328;2023-02-13T13:28:15;4.28;;;3.15;;
37455;SDS011;23316;50.718;7.328;2023-02-13T13:30:45;6.75;;;4.03;;
37455;SDS011;23316;50.718;7.328;2023-02-13T13:33:13;4.57;;;2.92;;
37455;SDS011;23316;50.718;7.328;2023-02-13T13:35:45;5.40;;;3.53;;
37455;SDS011;23316;50.718;7.328;2023-02-13T13:38:23;5.40;;;3.40;;
37455;SDS011;23316;50.718;7.328;2023-02-13T13:41:03;6.20;;;3.20;;
37455;SDS011;23316;50.718;7.328;2023-02-13T13:43:39;6.38;;;3.30;;
37455;SDS011;23316;50.718;7.328;2023-02-13T13:46:16;4.28;;;2.80;;
37455;SDS011;23316;50.718;7.328;2023-02-13T13:48:52;7.25;;;3.00;;
37455;SDS011;23316;50.718;7.328;2023-02-13T13:51:26;5.05;;;3.03;;
37455;SDS011;23316;50.718;7.328;2023-02-13T14:02:49;5.22;;;2.95;;
37455;SDS011;23316;50.718;7.328;2023-02-13T14:05:19;5.03;;;2.60;;
37455;SDS011;23316;50.718;7.328;2023-02-13T14:07:50;3.65;;;2.50;;
37455;SDS011;23316;50.718;7.328;2023-02-13T14:13:31;3.65;;;2.60;;
37455;SDS011;23316;50.718;7.328;2023-02-13T14:16:00;4.63;;;2.72;;
37455;SDS011;23316;50.718;7.328;2023-02-13T14:18:28;3.55;;;2.22;;
37455;SDS011;23316;50.718;7.328;2023-02-13T14:20:57;3.45;;;2.38;;
37455;SDS011;23316;50.718;7.328;2023-02-13T14:23:27;8.30;;;2.95;;
37455;SDS011;23316;50.718;7.328;2023-02-13T14:26:11;5.97;;;2.83;;
37455;SDS011;23316;50.718;7.328;2023-02-13T14:28:55;5.03;;;2.90;;
37455;SDS011;23316;50.718;7.328;2023-02-13T14:31:42;5.32;;;2.67;;
37455;SDS011;23316;50.718;7.328;2023-02-13T14:34:25;4.07;;;2.53;;
37455;SDS011;23316;50.718;7.328;2023-02-13T14:37:01;3.97;;;2.75;;
37455;SDS011;23316;50.718;7.328;2023-02-13T14:39:33;4.80;;;2.67;;
37455;SDS011;23316;50.718;7.328;2023-02-13T14:42:01;4.03;;;2.50;;
37455;SDS011;23316;50.718;7.328;2023-02-13T14:44:32;7.13;;;2.67;;
37455;SDS011;23316;50.718;7.328;2023-02-13T14:47:03;3.78;;;1.90;;
37455;SDS011;23316;50.718;7.328;2023-02-13T14:49:39;4.53;;;2.45;;
37455;SDS011;23316;50.718;7.328;2023-02-13T14:52:12;3.75;;;2.65;;
37455;SDS011;23316;50.718;7.328;2023-02-13T14:54:44;4.35;;;2.55;;
37455;SDS011;23316;50.718;7.328;2023-02-13T14:57:16;3.33;;;2.42;;
37455;SDS011;23316;50.718;7.328;2023-02-13T14:59:48;5.25;;;2.65;;
37455;SDS011;23316;50.718;7.328;2023-02-13T15:02:20;3.70;;;2.45;;
37455;SDS011;23316;50.718;7.328;2023-02-13T15:04:52;3.60;;;2.13;;
37455;SDS011;23316;50.718;7.328;2023-02-13T15:07:23;6.15;;;1.95;;
37455;SDS011;23316;50.718;7.328;2023-02-13T15:09:55;2.38;;;1.80;;
37455;SDS011;23316;50.718;7.328;2023-02-13T15:12:27;2.90;;;2.00;;
37455;SDS011;23316;50.718;7.328;2023-02-13T15:14:57;4.05;;;2.00;;
37455;SDS011;23316;50.718;7.328;2023-02-13T15:17:27;2.65;;;1.80;;
37455;SDS011;23316;50.718;7.328;2023-02-13T15:19:58;3.38;;;1.90;;
37455;SDS011;23316;50.718;7.328;2023-02-13T15:22:31;2.72;;;2.03;;
37455;SDS011;23316;50.718;7.328;2023-02-13T15:25:00;2.50;;;1.77;;
37455;SDS011;23316;50.718;7.328;2023-02-13T15:27:29;2.53;;;1.98;;